sensor_id;sensor_type;location;lat;lon;timestamp;temperature;humidity
23233;DHT22;11785;49.500;8.288;2023-04-23T00:01:46;13.00;99.90
23233;DHT22;11785;49.500;8.288;2023-04-23T00:04:14;13.00;99.90
23233;DHT22;11785;49.500;8.288;2023-04-23T00:06:43;13.00;99.90
23233;DHT22;11785;49.500;8.288;2023-04-23T00:09:12;12.90;99.90
23233;DHT22;11785;49.500;8.288;2023-04-23T00:11:39;12.90;99.90
23233;DHT22;11785;49.500;8.288;2023-04-23T00:14:05;12.90;99.90
23233;DHT22;11785;49.500;8.288;2023-04-23T00:16:31;12.90;99.90
23233;DHT22;11785;49.500;8.288;2023-04-23T00:18:56;12.90;99.90
23233;DHT22;11785;49.500;8.288;2023-04-23T00:21:22;12.80;99.90
23233;DHT22;11785;49.500;8.288;2023-04-23T00:23:47;12.80;99.90
23233;DHT22;11785;49.500;8.288;2023-04-23T00:26:13;12.80;99.90
23233;DHT22;11785;49.500;8.288;2023-04-23T00:28:39;12.80;99.90
23233;DHT22;11785;49.500;8.288;2023-04-23T00:31:04;12.70;99.90
23233;DHT22;11785;49.500;8.288;2023-04-23T00:33:30;12.70;99.90
23233;DHT22;11785;49.500;8.288;2023-04-23T00:35:56;12.70;99.90
23233;DHT22;11785;49.500;8.288;2023-04-23T00:38:21;12.70;99.90
23233;DHT22;11785;49.500;8.288;2023-04-23T00:40:47;12.70;99.90
23233;DHT22;11785;49.500;8.288;2023-04-23T00:43:12;12.70;99.90
23233;DHT22;11785;49.500;8.288;2023-04-23T00:45:39;12.70;99.90
23233;DHT22;11785;49.500;8.288;2023-04-23T00:48:06;12.70;99.90
23233;DHT22;11785;49.500;8.288;2023-04-23T00:50:31;12.70;99.90
23233;DHT22;11785;49.500;8.288;2023-04-23T00:52:57;12.70;99.90
23233;DHT22;11785;49.500;8.288;2023-04-23T00:55:23;12.70;99.90
23233;DHT22;11785;49.500;8.288;2023-04-23T00:57:49;12.70;99.90
23233;DHT22;11785;49.500;8.288;2023-04-23T01:00:15;12.70;99.90
23233;DHT22;11785;49.500;8.288;2023-04-23T01:02:42;12.70;99.90
23233;DHT22;11785;49.500;8.288;2023-04-23T01:05:09;12.70;99.90
23233;DHT22;11785;49.500;8.288;2023-04-23T01:07:36;12.60;99.90
23233;DHT22;11785;49.500;8.288;2023-04-23T01:10:03;12.60;99.90
23233;DHT22;11785;49.500;8.288;2023-04-23T01:12:30;12.60;99.90
23233;DHT22;11785;49.500;8.288;2023-04-23T01:14:56;12.60;99.90
23233;DHT22;11785;49.500;8.288;2023-04-23T01:17:21;12.50;99.90
23233;DHT22;11785;49.500;8.288;2023-04-23T01:19:47;12.60;99.90
23233;DHT22;11785;49.500;8.288;2023-04-23T01:22:14;12.60;99.90
23233;DHT22;11785;49.500;8.288;2023-04-23T01:24:41;12.60;99.90
23233;DHT22;11785;49.500;8.288;2023-04-23T01:27:08;12.60;99.90
23233;DHT22;11785;49.500;8.288;2023-04-23T01:29:33;12.60;99.90
23233;DHT22;11785;49.500;8.288;2023-04-23T01:32:00;12.60;99.90
23233;DHT22;11785;49.500;8.288;2023-04-23T01:34:26;12.70;99.90
23233;DHT22;11785;49.500;8.288;2023-04-23T01:36:53;12.70;99.90
23233;DHT22;11785;49.500;8.288;2023-04-23T01:39:19;12.70;99.90
23233;DHT22;11785;49.500;8.288;2023-04-23T01:41:45;12.70;99.90
23233;DHT22;11785;49.500;8.288;2023-04-23T01:44:11;12.70;99.90
23233;DHT22;11785;49.500;8.288;2023-04-23T01:46:37;12.70;99.90
23233;DHT22;11785;49.500;8.288;2023-04-23T01:49:02;12.70;99.90
23233;DHT22;11785;49.500;8.288;2023-04-23T01:51:29;12.70;99.90
23233;DHT22;11785;49.500;8.288;2023-04-23T01:53:55;12.70;99.90
23233;DHT22;11785;49.500;8.288;2023-04-23T01:56:24;12.70;99.90
23233;DHT22;11785;49.500;8.288;2023-04-23T01:58:51;12.70;99.90
23233;DHT22;11785;49.500;8.288;2023-04-23T02:01:17;12.70;99.90
23233;DHT22;11785;49.500;8.288;2023-04-23T02:03:43;12.70;99.90
23233;DHT22;11785;49.500;8.288;2023-04-23T02:06:09;12.70;99.90
23233;DHT22;11785;49.500;8.288;2023-04-23T02:08:35;12.70;99.90
23233;DHT22;11785;49.500;8.288;2023-04-23T02:11:01;12.70;99.90
23233;DHT22;11785;49.500;8.288;2023-04-23T02:13:27;12.70;99.90
23233;DHT22;11785;49.500;8.288;2023-04-23T02:15:52;12.70;99.90
23233;DHT22;11785;49.500;8.288;2023-04-23T02:18:18;12.70;99.90
23233;DHT22;11785;49.500;8.288;2023-04-23T02:20:43;12.70;99.90
23233;DHT22;11785;49.500;8.288;2023-04-23T02:23:09;12.80;99.90
23233;DHT22;11785;49.500;8.288;2023-04-23T02:25:35;12.80;99.90
23233;DHT22;11785;49.500;8.288;2023-04-23T02:28:03;12.70;99.90
23233;DHT22;11785;49.500;8.288;2023-04-23T02:30:34;12.70;99.90
23233;DHT22;11785;49.500;8.288;2023-04-23T02:33:00;12.70;99.90
23233;DHT22;11785;49.500;8.288;2023-04-23T02:35:26;12.70;99.90
23233;DHT22;11785;49.500;8.288;2023-04-23T02:37:52;12.70;99.80
23233;DHT22;11785;49.500;8.288;2023-04-23T02:40:19;12.70;99.50
23233;DHT22;11785;49.500;8.288;2023-04-23T02:42:44;12.70;99.10
23233;DHT22;11785;49.500;8.288;2023-04-23T02:45:10;12.70;98.90
23233;DHT22;11785;49.500;8.288;2023-04-23T02:47:37;12.70;98.50
23233;DHT22;11785;49.500;8.288;2023-04-23T02:50:03;12.70;98.40
23233;DHT22;11785;49.500;8.288;2023-04-23T02:52:31;12.60;98.30
23233;DHT22;11785;49.500;8.288;2023-04-23T02:54:56;12.70;98.00
23233;DHT22;11785;49.500;8.288;2023-04-23T02:57:22;12.60;98.90
23233;DHT22;11785;49.500;8.288;2023-04-23T02:59:48;12.60;98.90
23233;DHT22;11785;49.500;8.288;2023-04-23T03:02:14;12.60;98.80
23233;DHT22;11785;49.500;8.288;2023-04-23T03:04:40;12.60;98.80
23233;DHT22;11785;49.500;8.288;2023-04-23T03:07:06;12.60;98.90
23233;DHT22;11785;49.500;8.288;2023-04-23T03:09:31;12.50;98.80
23233;DHT22;11785;49.500;8.288;2023-04-23T03:11:57;12.50;99.00
23233;DHT22;11785;49.500;8.288;2023-04-23T03:14:22;12.50;99.00
23233;DHT22;11785;49.500;8.288;2023-04-23T03:16:48;12.50;98.70
23233;DHT22;11785;49.500;8.288;2023-04-23T03:19:14;12.50;98.40
23233;DHT22;11785;49.500;8.288;2023-04-23T03:21:39;12.50;98.10
23233;DHT22;11785;49.500;8.288;2023-04-23T03:24:05;12.50;98.80
23233;DHT22;11785;49.500;8.288;2023-04-23T03:26:31;12.40;99.40
23233;DHT22;11785;49.500;8.288;2023-04-23T03:28:56;12.40;99.60
23233;DHT22;11785;49.500;8.288;2023-04-23T03:31:22;12.40;99.70
23233;DHT22;11785;49.500;8.288;2023-04-23T03:33:47;12.30;99.90
23233;DHT22;11785;49.500;8.288;2023-04-23T03:36:13;12.30;99.90
23233;DHT22;11785;49.500;8.288;2023-04-23T03:38:40;12.30;99.90
23233;DHT22;11785;49.500;8.288;2023-04-23T03:41:05;12.20;99.90
23233;DHT22;11785;49.500;8.288;2023-04-23T03:43:31;12.20;99.90
23233;DHT22;11785;49.500;8.288;2023-04-23T03:45:56;12.20;99.90
23233;DHT22;11785;49.500;8.288;2023-04-23T03:48:22;12.20;99.90
23233;DHT22;11785;49.500;8.288;2023-04-23T03:50:47;12.10;99.90
23233;DHT22;11785;49.500;8.288;2023-04-23T03:53:13;12.10;99.90
23233;DHT22;11785;49.500;8.288;2023-04-23T03:55:39;12.10;99.90
23233;DHT22;11785;49.500;8.288;2023-04-23T03:58:04;12.00;99.90
23233;DHT22;11785;49.500;8.288;2023-04-23T04:00:30;11.90;99.90
23233;DHT22;11785;49.500;8.288;2023-04-23T04:02:55;11.90;99.90
23233;DHT22;11785;49.500;8.288;2023-04-23T04:05:21;11.90;99.90
23233;DHT22;11785;49.500;8.288;2023-04-23T04:07:47;11.90;99.90
23233;DHT22;11785;49.500;8.288;2023-04-23T04:10:13;11.80;99.90
23233;DHT22;11785;49.500;8.288;2023-04-23T04:12:39;11.80;99.90
23233;DHT22;11785;49.500;8.288;2023-04-23T04:15:06;11.80;99.90
23233;DHT22;11785;49.500;8.288;2023-04-23T04:17:32;11.80;99.90
23233;DHT22;11785;49.500;8.288;2023-04-23T04:19:57;11.80;99.90
23233;DHT22;11785;49.500;8.288;2023-04-23T04:22:23;11.80;99.90
23233;DHT22;11785;49.500;8.288;2023-04-23T04:24:49;11.70;99.90
23233;DHT22;11785;49.500;8.288;2023-04-23T04:27:16;11.70;99.90
23233;DHT22;11785;49.500;8.288;2023-04-23T04:29:42;11.70;99.90
23233;DHT22;11785;49.500;8.288;2023-04-23T04:32:08;11.70;99.90
23233;DHT22;11785;49.500;8.288;2023-04-23T04:34:34;11.60;99.90
23233;DHT22;11785;49.500;8.288;2023-04-23T04:37:02;11.70;99.90
23233;DHT22;11785;49.500;8.288;2023-04-23T04:39:28;11.60;99.90
23233;DHT22;11785;49.500;8.288;2023-04-23T04:41:53;11.60;99.90
23233;DHT22;11785;49.500;8.288;2023-04-23T04:44:19;11.70;99.90
23233;DHT22;11785;49.500;8.288;2023-04-23T04:46:45;11.60;99.90
23233;DHT22;11785;49.500;8.288;2023-04-23T04:49:12;11.60;99.90
23233;DHT22;11785;49.500;8.288;2023-04-23T04:51:39;11.70;99.90
23233;DHT22;11785;49.500;8.288;2023-04-23T04:54:05;11.60;99.90
23233;DHT22;11785;49.500;8.288;2023-04-23T04:56:32;11.70;99.90
23233;DHT22;11785;49.500;8.288;2023-04-23T04:58:57;11.70;99.90
23233;DHT22;11785;49.500;8.288;2023-04-23T05:01:23;11.80;99.90
23233;DHT22;11785;49.500;8.288;2023-04-23T05:03:49;11.80;99.90
23233;DHT22;11785;49.500;8.288;2023-04-23T05:06:15;11.80;99.90
23233;DHT22;11785;49.500;8.288;2023-04-23T05:08:41;11.90;99.90
23233;DHT22;11785;49.500;8.288;2023-04-23T05:11:07;11.90;99.90
23233;DHT22;11785;49.500;8.288;2023-04-23T05:13:33;12.00;99.90
23233;DHT22;11785;49.500;8.288;2023-04-23T05:15:58;11.90;99.90
23233;DHT22;11785;49.500;8.288;2023-04-23T05:18:24;11.90;99.90
23233;DHT22;11785;49.500;8.288;2023-04-23T05:20:50;11.90;99.90
23233;DHT22;11785;49.500;8.288;2023-04-23T05:23:15;11.90;99.90
23233;DHT22;11785;49.500;8.288;2023-04-23T05:25:41;11.90;99.90
23233;DHT22;11785;49.500;8.288;2023-04-23T05:28:06;11.80;99.90
23233;DHT22;11785;49.500;8.288;2023-04-23T05:30:33;11.80;99.90
23233;DHT22;11785;49.500;8.288;2023-04-23T05:32:58;11.80;99.90
23233;DHT22;11785;49.500;8.288;2023-04-23T05:35:24;11.80;99.90
23233;DHT22;11785;49.500;8.288;2023-04-23T05:37:50;11.90;99.90
23233;DHT22;11785;49.500;8.288;2023-04-23T05:40:15;11.90;99.90
23233;DHT22;11785;49.500;8.288;2023-04-23T05:42:41;11.90;99.90
23233;DHT22;11785;49.500;8.288;2023-04-23T05:45:07;11.90;99.90
23233;DHT22;11785;49.500;8.288;2023-04-23T05:47:33;11.80;99.90
23233;DHT22;11785;49.500;8.288;2023-04-23T05:49:58;11.80;99.90
23233;DHT22;11785;49.500;8.288;2023-04-23T05:52:25;11.80;99.90
23233;DHT22;11785;49.500;8.288;2023-04-23T05:54:51;11.80;99.90
23233;DHT22;11785;49.500;8.288;2023-04-23T05:57:17;11.80;99.90
23233;DHT22;11785;49.500;8.288;2023-04-23T05:59:42;11.80;99.90
23233;DHT22;11785;49.500;8.288;2023-04-23T06:02:09;11.80;99.90
23233;DHT22;11785;49.500;8.288;2023-04-23T06:04:36;11.80;99.90
23233;DHT22;11785;49.500;8.288;2023-04-23T06:07:02;12.00;99.90
23233;DHT22;11785;49.500;8.288;2023-04-23T06:09:27;12.10;99.90
23233;DHT22;11785;49.500;8.288;2023-04-23T06:11:53;12.30;99.90
23233;DHT22;11785;49.500;8.288;2023-04-23T06:14:19;12.40;99.90
23233;DHT22;11785;49.500;8.288;2023-04-23T06:16:45;12.50;99.90
23233;DHT22;11785;49.500;8.288;2023-04-23T06:19:10;12.50;99.90
23233;DHT22;11785;49.500;8.288;2023-04-23T06:21:36;12.60;99.90
23233;DHT22;11785;49.500;8.288;2023-04-23T06:24:02;12.70;99.90
23233;DHT22;11785;49.500;8.288;2023-04-23T06:26:28;12.80;99.90
23233;DHT22;11785;49.500;8.288;2023-04-23T06:28:53;12.90;99.90
23233;DHT22;11785;49.500;8.288;2023-04-23T06:31:19;13.00;99.90
23233;DHT22;11785;49.500;8.288;2023-04-23T06:33:44;13.10;99.30
23233;DHT22;11785;49.500;8.288;2023-04-23T06:36:10;13.30;98.80
23233;DHT22;11785;49.500;8.288;2023-04-23T06:38:36;13.40;97.90
23233;DHT22;11785;49.500;8.288;2023-04-23T06:41:02;13.50;96.80
23233;DHT22;11785;49.500;8.288;2023-04-23T06:43:29;13.60;96.40
23233;DHT22;11785;49.500;8.288;2023-04-23T06:45:54;13.60;96.50
23233;DHT22;11785;49.500;8.288;2023-04-23T06:48:21;13.70;95.10
23233;DHT22;11785;49.500;8.288;2023-04-23T06:50:47;13.80;94.90
23233;DHT22;11785;49.500;8.288;2023-04-23T06:53:14;13.80;92.70
23233;DHT22;11785;49.500;8.288;2023-04-23T06:55:39;13.80;92.10
23233;DHT22;11785;49.500;8.288;2023-04-23T06:58:05;13.80;90.90
23233;DHT22;11785;49.500;8.288;2023-04-23T07:00:33;13.90;90.50
23233;DHT22;11785;49.500;8.288;2023-04-23T07:02:59;14.10;90.30
23233;DHT22;11785;49.500;8.288;2023-04-23T07:05:25;14.20;88.60
23233;DHT22;11785;49.500;8.288;2023-04-23T07:07:50;14.30;87.90
23233;DHT22;11785;49.500;8.288;2023-04-23T07:10:17;14.40;86.10
23233;DHT22;11785;49.500;8.288;2023-04-23T07:12:43;14.40;84.40
23233;DHT22;11785;49.500;8.288;2023-04-23T07:15:09;14.40;82.70
23233;DHT22;11785;49.500;8.288;2023-04-23T07:17:34;14.50;82.60
23233;DHT22;11785;49.500;8.288;2023-04-23T07:20:00;14.60;80.20
23233;DHT22;11785;49.500;8.288;2023-04-23T07:22:30;14.80;79.60
23233;DHT22;11785;49.500;8.288;2023-04-23T07:24:55;15.10;78.00
23233;DHT22;11785;49.500;8.288;2023-04-23T07:27:21;15.60;75.50
23233;DHT22;11785;49.500;8.288;2023-04-23T07:29:46;16.10;69.50
23233;DHT22;11785;49.500;8.288;2023-04-23T07:32:12;16.70;63.50
23233;DHT22;11785;49.500;8.288;2023-04-23T07:34:38;16.90;59.90
23233;DHT22;11785;49.500;8.288;2023-04-23T07:37:03;16.80;59.80
23233;DHT22;11785;49.500;8.288;2023-04-23T07:39:29;16.50;59.90
23233;DHT22;11785;49.500;8.288;2023-04-23T07:41:56;16.20;59.90
23233;DHT22;11785;49.500;8.288;2023-04-23T07:44:22;16.10;61.00
23233;DHT22;11785;49.500;8.288;2023-04-23T07:46:48;16.20;60.20
23233;DHT22;11785;49.500;8.288;2023-04-23T07:49:14;16.30;59.90
23233;DHT22;11785;49.500;8.288;2023-04-23T07:51:40;16.50;59.80
23233;DHT22;11785;49.500;8.288;2023-04-23T07:54:06;16.30;59.80
23233;DHT22;11785;49.500;8.288;2023-04-23T07:56:32;16.40;59.90
23233;DHT22;11785;49.500;8.288;2023-04-23T07:58:58;16.60;59.80
23233;DHT22;11785;49.500;8.288;2023-04-23T08:01:24;17.00;59.70
23233;DHT22;11785;49.500;8.288;2023-04-23T08:03:50;16.80;59.60
23233;DHT22;11785;49.500;8.288;2023-04-23T08:06:15;16.70;59.80
23233;DHT22;11785;49.500;8.288;2023-04-23T08:08:42;16.80;59.70
23233;DHT22;11785;49.500;8.288;2023-04-23T08:11:08;17.00;59.40
23233;DHT22;11785;49.500;8.288;2023-04-23T08:13:34;16.90;59.40
23233;DHT22;11785;49.500;8.288;2023-04-23T08:15:59;16.80;59.40
23233;DHT22;11785;49.500;8.288;2023-04-23T08:18:25;16.70;59.40
23233;DHT22;11785;49.500;8.288;2023-04-23T08:20:52;16.80;59.30
23233;DHT22;11785;49.500;8.288;2023-04-23T08:23:18;17.00;59.30
23233;DHT22;11785;49.500;8.288;2023-04-23T08:25:43;17.40;59.20
23233;DHT22;11785;49.500;8.288;2023-04-23T08:28:09;17.20;59.10
23233;DHT22;11785;49.500;8.288;2023-04-23T08:30:34;17.40;59.20
23233;DHT22;11785;49.500;8.288;2023-04-23T08:33:00;17.40;59.20
23233;DHT22;11785;49.500;8.288;2023-04-23T08:35:26;17.70;59.20
23233;DHT22;11785;49.500;8.288;2023-04-23T08:37:51;17.70;59.10
23233;DHT22;11785;49.500;8.288;2023-04-23T08:40:17;17.90;59.10
23233;DHT22;11785;49.500;8.288;2023-04-23T08:45:18;17.90;59.00
23233;DHT22;11785;49.500;8.288;2023-04-23T08:47:44;17.20;59.20
23233;DHT22;11785;49.500;8.288;2023-04-23T08:50:15;17.10;59.30
23233;DHT22;11785;49.500;8.288;2023-04-23T08:52:49;17.30;59.20
23233;DHT22;11785;49.500;8.288;2023-04-23T08:55:17;17.50;59.20
23233;DHT22;11785;49.500;8.288;2023-04-23T08:57:44;17.90;59.20
23233;DHT22;11785;49.500;8.288;2023-04-23T09:00:11;18.00;59.10
23233;DHT22;11785;49.500;8.288;2023-04-23T09:02:39;18.40;59.00
23233;DHT22;11785;49.500;8.288;2023-04-23T09:05:05;18.50;58.90
23233;DHT22;11785;49.500;8.288;2023-04-23T09:07:32;18.30;58.90
23233;DHT22;11785;49.500;8.288;2023-04-23T09:09:58;18.30;58.80
23233;DHT22;11785;49.500;8.288;2023-04-23T09:12:24;18.30;58.90
23233;DHT22;11785;49.500;8.288;2023-04-23T09:14:50;18.30;58.90
23233;DHT22;11785;49.500;8.288;2023-04-23T09:17:17;18.20;58.90
23233;DHT22;11785;49.500;8.288;2023-04-23T09:19:44;17.90;59.00
23233;DHT22;11785;49.500;8.288;2023-04-23T09:22:10;18.20;58.90
23233;DHT22;11785;49.500;8.288;2023-04-23T09:24:36;17.90;58.90
23233;DHT22;11785;49.500;8.288;2023-04-23T09:27:02;17.60;59.00
23233;DHT22;11785;49.500;8.288;2023-04-23T09:29:29;17.70;58.90
23233;DHT22;11785;49.500;8.288;2023-04-23T09:32:08;17.60;58.90
23233;DHT22;11785;49.500;8.288;2023-04-23T09:34:35;17.40;59.00
23233;DHT22;11785;49.500;8.288;2023-04-23T09:37:03;17.60;59.00
23233;DHT22;11785;49.500;8.288;2023-04-23T09:39:29;17.70;59.00
23233;DHT22;11785;49.500;8.288;2023-04-23T09:42:02;17.80;58.90
23233;DHT22;11785;49.500;8.288;2023-04-23T09:44:31;18.10;58.80
23233;DHT22;11785;49.500;8.288;2023-04-23T09:47:07;18.30;58.70
23233;DHT22;11785;49.500;8.288;2023-04-23T09:49:46;18.20;58.80
23233;DHT22;11785;49.500;8.288;2023-04-23T09:52:12;18.20;58.70
23233;DHT22;11785;49.500;8.288;2023-04-23T09:54:37;18.10;58.80
23233;DHT22;11785;49.500;8.288;2023-04-23T09:57:04;18.30;58.80
23233;DHT22;11785;49.500;8.288;2023-04-23T09:59:34;18.70;58.70
23233;DHT22;11785;49.500;8.288;2023-04-23T10:02:05;19.10;58.60
23233;DHT22;11785;49.500;8.288;2023-04-23T10:04:32;19.00;58.50
23233;DHT22;11785;49.500;8.288;2023-04-23T10:07:01;19.00;58.50
23233;DHT22;11785;49.500;8.288;2023-04-23T10:09:29;18.70;58.60
23233;DHT22;11785;49.500;8.288;2023-04-23T10:12:00;18.90;58.50
23233;DHT22;11785;49.500;8.288;2023-04-23T10:14:28;19.00;58.40
23233;DHT22;11785;49.500;8.288;2023-04-23T10:19:24;18.80;58.40
23233;DHT22;11785;49.500;8.288;2023-04-23T10:21:56;18.50;58.50
23233;DHT22;11785;49.500;8.288;2023-04-23T10:24:26;18.40;58.60
23233;DHT22;11785;49.500;8.288;2023-04-23T10:26:59;18.20;58.60
23233;DHT22;11785;49.500;8.288;2023-04-23T10:29:32;18.40;58.60
23233;DHT22;11785;49.500;8.288;2023-04-23T10:31:59;18.50;58.60
23233;DHT22;11785;49.500;8.288;2023-04-23T10:34:26;18.70;58.50
23233;DHT22;11785;49.500;8.288;2023-04-23T10:36:53;18.90;58.50
23233;DHT22;11785;49.500;8.288;2023-04-23T10:39:20;18.80;58.40
23233;DHT22;11785;49.500;8.288;2023-04-23T10:41:47;18.70;58.50
23233;DHT22;11785;49.500;8.288;2023-04-23T10:44:13;18.80;58.40
23233;DHT22;11785;49.500;8.288;2023-04-23T10:46:53;18.60;58.40
23233;DHT22;11785;49.500;8.288;2023-04-23T10:49:22;18.60;58.40
23233;DHT22;11785;49.500;8.288;2023-04-23T10:51:47;18.80;58.40
23233;DHT22;11785;49.500;8.288;2023-04-23T10:54:14;19.10;58.30
23233;DHT22;11785;49.500;8.288;2023-04-23T10:56:41;19.20;58.20
23233;DHT22;11785;49.500;8.288;2023-04-23T10:59:17;19.70;58.10
23233;DHT22;11785;49.500;8.288;2023-04-23T11:01:46;20.20;58.00
23233;DHT22;11785;49.500;8.288;2023-04-23T11:04:26;20.50;57.90
23233;DHT22;11785;49.500;8.288;2023-04-23T11:07:13;20.40;57.90
23233;DHT22;11785;49.500;8.288;2023-04-23T11:09:44;20.00;58.00
23233;DHT22;11785;49.500;8.288;2023-04-23T11:14:52;19.40;58.10
23233;DHT22;11785;49.500;8.288;2023-04-23T11:17:23;19.60;58.00
23233;DHT22;11785;49.500;8.288;2023-04-23T11:20:17;19.70;58.00
23233;DHT22;11785;49.500;8.288;2023-04-23T11:22:46;19.60;58.00
23233;DHT22;11785;49.500;8.288;2023-04-23T11:25:15;19.80;58.00
23233;DHT22;11785;49.500;8.288;2023-04-23T11:27:44;20.30;57.80
23233;DHT22;11785;49.500;8.288;2023-04-23T11:32:40;20.50;57.80
23233;DHT22;11785;49.500;8.288;2023-04-23T11:35:06;21.20;57.60
23233;DHT22;11785;49.500;8.288;2023-04-23T11:37:40;21.00;57.60
23233;DHT22;11785;49.500;8.288;2023-04-23T11:40:07;20.20;57.70
23233;DHT22;11785;49.500;8.288;2023-04-23T11:42:47;20.10;57.80
23233;DHT22;11785;49.500;8.288;2023-04-23T11:45:27;20.00;57.80
23233;DHT22;11785;49.500;8.288;2023-04-23T11:47:54;20.10;57.80
23233;DHT22;11785;49.500;8.288;2023-04-23T11:52:47;20.50;57.60
23233;DHT22;11785;49.500;8.288;2023-04-23T11:55:13;20.70;57.50
23233;DHT22;11785;49.500;8.288;2023-04-23T11:57:43;21.40;57.50
23233;DHT22;11785;49.500;8.288;2023-04-23T12:00:29;22.20;57.20
23233;DHT22;11785;49.500;8.288;2023-04-23T12:03:00;22.50;57.10
23233;DHT22;11785;49.500;8.288;2023-04-23T12:05:39;23.50;56.70
23233;DHT22;11785;49.500;8.288;2023-04-23T12:08:10;23.60;56.70
23233;DHT22;11785;49.500;8.288;2023-04-23T12:10:44;24.40;56.40
23233;DHT22;11785;49.500;8.288;2023-04-23T12:13:29;25.90;46.00
23233;DHT22;11785;49.500;8.288;2023-04-23T12:16:01;26.60;46.50
23233;DHT22;11785;49.500;8.288;2023-04-23T12:18:31;26.30;46.60
23233;DHT22;11785;49.500;8.288;2023-04-23T12:21:11;24.80;56.10
23233;DHT22;11785;49.500;8.288;2023-04-23T12:23:38;24.50;56.10
23233;DHT22;11785;49.500;8.288;2023-04-23T12:26:09;23.50;56.30
23233;DHT22;11785;49.500;8.288;2023-04-23T12:28:54;23.90;56.20
23233;DHT22;11785;49.500;8.288;2023-04-23T12:31:25;25.10;46.10
23233;DHT22;11785;49.500;8.288;2023-04-23T12:34:02;25.70;46.30
23233;DHT22;11785;49.500;8.288;2023-04-23T12:36:28;26.20;46.50
23233;DHT22;11785;49.500;8.288;2023-04-23T12:39:30;26.80;46.80
23233;DHT22;11785;49.500;8.288;2023-04-23T12:42:06;26.80;46.90
23233;DHT22;11785;49.500;8.288;2023-04-23T12:44:38;26.80;46.80
23233;DHT22;11785;49.500;8.288;2023-04-23T12:47:08;26.50;46.80
23233;DHT22;11785;49.500;8.288;2023-04-23T12:49:37;26.40;46.70
23233;DHT22;11785;49.500;8.288;2023-04-23T12:52:04;27.10;47.00
23233;DHT22;11785;49.500;8.288;2023-04-23T12:54:39;27.50;47.10
23233;DHT22;11785;49.500;8.288;2023-04-23T12:57:06;28.20;47.30
23233;DHT22;11785;49.500;8.288;2023-04-23T12:59:33;29.00;47.60
23233;DHT22;11785;49.500;8.288;2023-04-23T13:01:59;29.80;48.00
23233;DHT22;11785;49.500;8.288;2023-04-23T13:04:27;27.70;47.40
23233;DHT22;11785;49.500;8.288;2023-04-23T13:06:52;25.80;46.70
23233;DHT22;11785;49.500;8.288;2023-04-23T13:09:19;24.60;55.80
23233;DHT22;11785;49.500;8.288;2023-04-23T13:11:46;25.20;46.50
23233;DHT22;11785;49.500;8.288;2023-04-23T13:14:14;25.20;46.40
23233;DHT22;11785;49.500;8.288;2023-04-23T13:16:41;25.00;52.20
23233;DHT22;11785;49.500;8.288;2023-04-23T13:19:07;25.00;52.20
23233;DHT22;11785;49.500;8.288;2023-04-23T13:21:32;23.90;55.90
23233;DHT22;11785;49.500;8.288;2023-04-23T13:23:58;23.70;55.90
23233;DHT22;11785;49.500;8.288;2023-04-23T13:26:23;23.40;56.00
23233;DHT22;11785;49.500;8.288;2023-04-23T13:28:49;23.20;56.10
23233;DHT22;11785;49.500;8.288;2023-04-23T13:31:15;23.10;56.10
23233;DHT22;11785;49.500;8.288;2023-04-23T13:33:41;24.60;55.70
23233;DHT22;11785;49.500;8.288;2023-04-23T13:36:07;24.50;55.70
23233;DHT22;11785;49.500;8.288;2023-04-23T13:38:33;25.10;46.50
23233;DHT22;11785;49.500;8.288;2023-04-23T13:40:58;25.90;46.80
23233;DHT22;11785;49.500;8.288;2023-04-23T13:43:24;26.40;47.00
23233;DHT22;11785;49.500;8.288;2023-04-23T13:45:50;26.30;47.00
23233;DHT22;11785;49.500;8.288;2023-04-23T13:48:17;27.30;47.30
23233;DHT22;11785;49.500;8.288;2023-04-23T13:50:42;26.00;47.00
23233;DHT22;11785;49.500;8.288;2023-04-23T13:53:09;25.40;46.70
23233;DHT22;11785;49.500;8.288;2023-04-23T13:55:35;25.40;46.70
23233;DHT22;11785;49.500;8.288;2023-04-23T13:58:02;24.50;55.70
23233;DHT22;11785;49.500;8.288;2023-04-23T14:00:28;24.50;55.70
23233;DHT22;11785;49.500;8.288;2023-04-23T14:02:54;23.50;55.90
23233;DHT22;11785;49.500;8.288;2023-04-23T14:05:20;22.90;56.10
23233;DHT22;11785;49.500;8.288;2023-04-23T14:07:46;22.60;56.10
23233;DHT22;11785;49.500;8.288;2023-04-23T14:10:11;22.50;56.20
23233;DHT22;11785;49.500;8.288;2023-04-23T14:12:37;22.80;56.20
23233;DHT22;11785;49.500;8.288;2023-04-23T14:15:07;23.10;56.00
23233;DHT22;11785;49.500;8.288;2023-04-23T14:17:34;22.90;56.10
23233;DHT22;11785;49.500;8.288;2023-04-23T14:19:59;22.60;56.30
23233;DHT22;11785;49.500;8.288;2023-04-23T14:22:25;22.60;56.30
23233;DHT22;11785;49.500;8.288;2023-04-23T14:24:56;22.30;56.30
23233;DHT22;11785;49.500;8.288;2023-04-23T14:27:25;22.40;56.40
23233;DHT22;11785;49.500;8.288;2023-04-23T14:32:19;22.40;56.40
23233;DHT22;11785;49.500;8.288;2023-04-23T14:34:45;22.40;56.40
23233;DHT22;11785;49.500;8.288;2023-04-23T14:37:11;22.40;56.40
23233;DHT22;11785;49.500;8.288;2023-04-23T14:39:37;22.10;56.50
23233;DHT22;11785;49.500;8.288;2023-04-23T14:42:02;21.90;56.50
23233;DHT22;11785;49.500;8.288;2023-04-23T14:44:28;21.40;56.60
23233;DHT22;11785;49.500;8.288;2023-04-23T14:46:54;21.00;56.60
23233;DHT22;11785;49.500;8.288;2023-04-23T14:49:20;20.50;56.70
23233;DHT22;11785;49.500;8.288;2023-04-23T14:51:50;20.30;56.80
23233;DHT22;11785;49.500;8.288;2023-04-23T14:54:18;20.00;56.90
23233;DHT22;11785;49.500;8.288;2023-04-23T14:56:44;19.80;56.90
23233;DHT22;11785;49.500;8.288;2023-04-23T14:59:10;19.70;57.00
23233;DHT22;11785;49.500;8.288;2023-04-23T15:01:36;19.60;57.00
23233;DHT22;11785;49.500;8.288;2023-04-23T15:04:02;19.50;57.00
23233;DHT22;11785;49.500;8.288;2023-04-23T15:06:27;19.40;57.10
23233;DHT22;11785;49.500;8.288;2023-04-23T15:08:53;19.30;57.10
23233;DHT22;11785;49.500;8.288;2023-04-23T15:11:19;19.30;57.10
23233;DHT22;11785;49.500;8.288;2023-04-23T15:13:49;19.30;57.10
23233;DHT22;11785;49.500;8.288;2023-04-23T15:16:29;19.30;57.10
23233;DHT22;11785;49.500;8.288;2023-04-23T15:18:57;19.20;57.20
23233;DHT22;11785;49.500;8.288;2023-04-23T15:21:24;19.20;57.20
23233;DHT22;11785;49.500;8.288;2023-04-23T15:23:53;19.10;57.20
23233;DHT22;11785;49.500;8.288;2023-04-23T15:26:20;19.10;57.20
23233;DHT22;11785;49.500;8.288;2023-04-23T15:28:46;19.10;57.30
23233;DHT22;11785;49.500;8.288;2023-04-23T15:31:11;18.70;57.60
23233;DHT22;11785;49.500;8.288;2023-04-23T15:33:37;17.70;58.00
23233;DHT22;11785;49.500;8.288;2023-04-23T15:36:03;17.10;58.20
23233;DHT22;11785;49.500;8.288;2023-04-23T15:38:29;16.80;58.20
23233;DHT22;11785;49.500;8.288;2023-04-23T15:40:55;16.60;58.10
23233;DHT22;11785;49.500;8.288;2023-04-23T15:43:21;16.60;58.10
23233;DHT22;11785;49.500;8.288;2023-04-23T15:45:47;16.60;58.10